createdAt,value
2018-03-01T00:01:42.896Z,41.60
2018-03-01T00:04:09.076Z,41.80
2018-03-01T00:06:35.292Z,41.60
2018-03-01T00:09:01.450Z,41.60
2018-03-01T00:11:28.603Z,41.40
2018-03-01T00:13:55.499Z,41.60
2018-03-01T00:16:21.696Z,41.70
2018-03-01T00:18:47.995Z,41.90
2018-03-01T00:21:14.243Z,41.60
2018-03-01T00:23:40.372Z,40.80
2018-03-01T00:26:06.510Z,41.30
2018-03-01T00:28:32.674Z,40.80
2018-03-01T00:30:58.827Z,41.10
2018-03-01T00:33:24.989Z,41.20
2018-03-01T00:35:51.147Z,41.40
2018-03-01T00:38:17.305Z,41.00
2018-03-01T00:40:43.492Z,40.90
2018-03-01T00:43:09.620Z,40.90
2018-03-01T00:45:35.775Z,41.40
2018-03-01T00:48:01.983Z,41.10
2018-03-01T00:50:28.124Z,40.90
2018-03-01T00:52:54.265Z,40.80
2018-03-01T00:55:20.407Z,40.80
2018-03-01T00:57:46.562Z,40.90
2018-03-01T01:00:12.720Z,40.40
2018-03-01T01:02:38.885Z,40.50
2018-03-01T01:05:05.451Z,40.50
2018-03-01T01:07:31.563Z,40.30
2018-03-01T01:09:57.710Z,40.30
2018-03-01T01:12:23.812Z,40.50
2018-03-01T01:14:49.967Z,40.10
2018-03-01T01:17:16.861Z,40.30
2018-03-01T01:19:42.997Z,40.30
2018-03-01T01:22:09.530Z,40.40
2018-03-01T01:24:35.715Z,40.80
2018-03-01T01:27:01.826Z,40.30
2018-03-01T01:29:29.182Z,40.00
2018-03-01T01:31:55.319Z,40.00
2018-03-01T01:34:21.549Z,40.10
2018-03-01T01:36:47.695Z,39.90
2018-03-01T01:39:15.191Z,40.10
2018-03-01T01:41:42.053Z,40.10
2018-03-01T01:44:08.183Z,40.20
2018-03-01T01:46:34.406Z,40.30
2018-03-01T01:49:00.538Z,40.10
2018-03-01T01:51:26.699Z,40.00
2018-03-01T01:53:53.564Z,40.30
2018-03-01T01:56:19.727Z,40.30
2018-03-01T01:58:45.922Z,40.50
2018-03-01T02:01:12.123Z,40.00
2018-03-01T02:03:38.311Z,40.70
2018-03-01T02:06:04.505Z,40.40
2018-03-01T02:08:30.659Z,40.30
2018-03-01T02:10:56.799Z,40.30
2018-03-01T02:13:23.659Z,40.20
2018-03-01T02:15:50.551Z,40.30
2018-03-01T02:18:16.764Z,40.30
2018-03-01T02:20:42.920Z,40.30
2018-03-01T02:23:09.211Z,40.40
2018-03-01T02:25:35.349Z,40.10
2018-03-01T02:28:01.472Z,40.40
2018-03-01T02:30:27.674Z,41.20
2018-03-01T02:32:53.905Z,40.40
2018-03-01T02:35:20.078Z,40.40
2018-03-01T02:37:46.258Z,40.40
2018-03-01T02:40:12.448Z,40.40
2018-03-01T02:42:38.630Z,41.10
2018-03-01T02:45:04.775Z,40.60
2018-03-01T02:47:31.676Z,41.70
2018-03-01T05:01:09.788Z,40.20
2018-03-01T05:03:35.915Z,40.50
2018-03-01T05:06:02.041Z,40.10
2018-03-01T05:08:28.207Z,40.10
2018-03-01T05:10:54.348Z,39.80
2018-03-01T05:13:20.512Z,39.90
2018-03-01T05:15:46.640Z,40.30
2018-03-01T05:18:12.782Z,40.40
2018-03-01T05:20:39.147Z,40.60
2018-03-01T05:23:05.354Z,40.40
2018-03-01T05:25:31.537Z,40.30
2018-03-01T05:27:58.451Z,40.80
2018-03-01T05:30:24.604Z,40.80
2018-03-01T05:32:50.744Z,40.50
2018-03-01T05:35:16.920Z,40.40
2018-03-01T05:37:43.096Z,40.70
2018-03-01T05:40:09.240Z,40.70
2018-03-01T05:42:35.371Z,40.40
2018-03-01T05:45:01.529Z,40.00
2018-03-01T05:47:28.529Z,40.30
2018-03-01T05:49:55.432Z,41.00
2018-03-01T05:52:21.611Z,40.90
2018-03-01T05:54:47.743Z,40.70
2018-03-01T05:57:13.904Z,40.40
2018-03-01T05:59:40.060Z,39.90
2018-03-01T06:02:06.276Z,40.20
2018-03-01T06:04:33.147Z,39.90
2018-03-01T06:06:59.319Z,39.80
2018-03-01T06:09:25.532Z,40.20
2018-03-01T06:11:51.616Z,40.20
2018-03-01T06:14:17.849Z,40.20
2018-03-01T06:16:44.036Z,39.80
2018-03-01T06:19:10.399Z,39.70
2018-03-01T06:21:36.621Z,40.00
2018-03-01T06:24:02.835Z,39.90
2018-03-01T06:26:28.988Z,39.80
2018-03-01T06:28:55.237Z,39.90
2018-03-01T06:31:22.156Z,40.20
2018-03-01T06:33:48.317Z,40.20
2018-03-01T06:36:15.204Z,40.20
2018-03-01T06:38:41.416Z,40.20
2018-03-01T06:41:08.337Z,40.20
2018-03-01T06:43:34.533Z,40.20
2018-03-01T06:46:04.008Z,40.20
2018-03-01T06:48:30.175Z,39.80
2018-03-01T06:50:56.403Z,40.50
2018-03-01T06:53:22.590Z,39.90
2018-03-01T06:55:50.162Z,39.70
2018-03-01T06:58:16.314Z,39.40
2018-03-01T07:00:42.476Z,39.60
2018-03-01T07:03:08.627Z,39.50
2018-03-01T07:05:38.503Z,40.00
2018-03-01T07:08:05.497Z,40.00
2018-03-01T07:10:31.819Z,39.40
2018-03-01T07:12:57.996Z,39.20
2018-03-01T07:15:25.121Z,39.10
2018-03-01T07:17:51.391Z,39.10
2018-03-01T07:20:17.579Z,39.00
2018-03-01T07:22:43.832Z,38.60
2018-03-01T07:25:10.006Z,39.00
2018-03-01T07:27:36.194Z,38.40
2018-03-01T07:30:02.468Z,38.80
2018-03-01T07:32:32.738Z,38.20
2018-03-01T07:34:58.983Z,38.40
2018-03-01T07:37:25.156Z,37.70
2018-03-01T07:39:51.355Z,37.90
2018-03-01T07:42:17.772Z,37.60
2018-03-01T07:44:43.962Z,37.60
2018-03-01T07:47:10.116Z,37.60
2018-03-01T07:49:36.485Z,38.20
2018-03-01T07:52:02.703Z,37.60
2018-03-01T07:54:29.650Z,37.40
2018-03-01T07:56:55.835Z,37.30
2018-03-01T07:59:22.212Z,37.60
2018-03-01T08:01:48.456Z,37.20
2018-03-01T08:04:14.625Z,37.60
2018-03-01T08:06:40.821Z,36.80
2018-03-01T08:09:06.983Z,37.60
2018-03-01T08:11:33.159Z,36.20
2018-03-01T08:13:59.342Z,36.40
2018-03-01T08:16:25.471Z,35.80
2018-03-01T08:18:51.642Z,35.60
2018-03-01T08:21:17.794Z,36.40
2018-03-01T08:23:44.031Z,35.50
2018-03-01T08:26:10.255Z,35.40
2018-03-01T08:28:36.434Z,35.40
2018-03-01T08:31:03.379Z,35.80
2018-03-01T08:33:29.525Z,35.70
2018-03-01T08:35:55.681Z,34.90
2018-03-01T08:38:21.828Z,34.80
2018-03-01T08:40:48.050Z,35.30
2018-03-01T08:43:14.200Z,34.50
2018-03-01T08:45:40.401Z,34.50
2018-03-01T08:48:06.580Z,34.30
2018-03-01T08:50:32.724Z,33.80
2018-03-01T08:52:58.962Z,33.60
2018-03-01T08:55:25.172Z,33.80
2018-03-01T08:57:51.325Z,33.50
2018-03-01T09:00:17.487Z,33.00
2018-03-01T09:02:43.661Z,33.00
2018-03-01T09:05:09.842Z,32.30
2018-03-01T09:07:35.977Z,32.70
2018-03-01T09:10:02.157Z,32.30
2018-03-01T09:12:28.771Z,32.00
2018-03-01T09:14:55.643Z,31.60
2018-03-01T09:17:21.788Z,31.60
2018-03-01T09:19:48.035Z,31.60
2018-03-01T09:22:14.402Z,30.90
2018-03-01T09:24:40.746Z,31.10
2018-03-01T09:27:07.002Z,31.40
2018-03-01T09:29:33.456Z,31.20
2018-03-01T09:31:59.694Z,31.20
2018-03-01T09:34:25.978Z,30.90
2018-03-01T09:36:52.295Z,30.60
2018-03-01T09:39:21.387Z,30.50
2018-03-01T09:41:47.692Z,30.40
2018-03-01T09:44:14.038Z,30.50
2018-03-01T09:46:40.328Z,30.40
2018-03-01T09:49:06.670Z,30.00
2018-03-01T09:51:32.960Z,30.00
2018-03-01T09:53:59.313Z,30.00
2018-03-01T09:56:25.683Z,29.40
2018-03-01T09:58:52.702Z,29.40
2018-03-01T10:01:18.936Z,29.30
2018-03-01T10:03:45.116Z,29.40
2018-03-01T10:06:11.287Z,29.40
2018-03-01T10:08:37.558Z,28.40
2018-03-01T10:11:04.957Z,28.50
2018-03-01T10:13:31.303Z,28.40
2018-03-01T10:15:57.616Z,28.40
2018-03-01T10:18:23.804Z,28.40
2018-03-01T10:20:49.957Z,28.50
2018-03-01T10:23:16.107Z,28.20
2018-03-01T10:25:42.341Z,27.90
2018-03-01T10:28:08.541Z,28.10
2018-03-01T10:30:34.688Z,28.30
2018-03-01T10:33:00.828Z,28.80
2018-03-01T10:35:26.955Z,28.00
2018-03-01T10:37:53.204Z,27.70
2018-03-01T10:40:19.383Z,27.50
2018-03-01T10:42:46.263Z,27.10
2018-03-01T10:45:12.449Z,27.10
2018-03-01T10:47:38.610Z,27.20
2018-03-01T10:50:04.800Z,27.30
2018-03-01T10:52:30.959Z,27.00
2018-03-01T10:54:57.152Z,27.40
2018-03-01T10:57:23.310Z,26.70
2018-03-01T10:59:49.586Z,26.70
2018-03-01T11:02:15.737Z,26.40
2018-03-01T11:04:41.908Z,26.10
2018-03-01T11:07:08.792Z,26.00
2018-03-01T11:09:34.948Z,26.00
2018-03-01T11:12:01.175Z,26.20
2018-03-01T11:14:33.757Z,26.50
2018-03-01T11:16:59.897Z,25.90
2018-03-01T11:19:27.043Z,25.50
2018-03-01T11:21:53.317Z,25.80
2018-03-01T11:24:19.631Z,25.60
2018-03-01T11:26:46.023Z,25.50
2018-03-01T11:29:12.246Z,25.20
2018-03-01T11:31:38.447Z,25.30
2018-03-01T11:37:07.913Z,24.90
2018-03-01T11:39:34.933Z,25.20
2018-03-01T11:42:03.633Z,25.00
2018-03-01T11:44:50.079Z,25.30
2018-03-01T11:47:21.270Z,25.10
2018-03-01T11:49:47.819Z,24.80
2018-03-01T11:52:16.152Z,24.70
2018-03-01T11:54:43.409Z,24.40
2018-03-01T11:59:43.371Z,24.00
2018-03-01T12:02:09.583Z,24.20
2018-03-01T12:04:43.852Z,24.50
2018-03-01T12:07:10.136Z,24.50
2018-03-01T12:09:37.532Z,24.70
2018-03-01T12:12:13.765Z,24.90
2018-03-01T12:14:40.554Z,24.80
2018-03-01T12:17:07.592Z,24.90
2018-03-01T12:19:34.028Z,24.90
2018-03-01T12:22:00.194Z,24.70
2018-03-01T12:24:26.376Z,25.10
2018-03-01T12:26:53.282Z,24.70
2018-03-01T12:29:19.643Z,24.90
2018-03-01T12:31:49.042Z,24.90
2018-03-01T12:34:15.874Z,24.80
2018-03-01T12:36:43.599Z,24.60
2018-03-01T12:39:10.129Z,24.00
2018-03-01T12:41:36.540Z,24.20
2018-03-01T12:44:06.956Z,24.40
2018-03-01T12:46:33.111Z,24.40
2018-03-01T12:48:59.281Z,24.20
2018-03-01T12:51:25.456Z,24.40
2018-03-01T12:53:52.884Z,23.40
2018-03-01T12:56:19.164Z,23.80
2018-03-01T12:58:45.407Z,24.00
2018-03-01T13:01:11.856Z,23.70
2018-03-01T13:03:38.145Z,23.60
2018-03-01T13:06:05.075Z,23.90
2018-03-01T13:08:32.720Z,24.30
2018-03-01T13:10:59.299Z,24.10
2018-03-01T13:13:25.652Z,24.10
2018-03-01T13:15:53.061Z,23.70
2018-03-01T13:18:19.378Z,23.80
2018-03-01T13:20:46.905Z,23.70
2018-03-01T13:23:15.846Z,23.70
2018-03-01T13:25:44.225Z,23.30
2018-03-01T13:28:10.882Z,23.40
2018-03-01T13:30:38.954Z,23.60
2018-03-01T13:33:12.563Z,23.40
2018-03-01T13:35:40.522Z,23.40
2018-03-01T13:38:06.948Z,23.30
2018-03-01T13:40:34.820Z,23.30
2018-03-01T13:43:04.548Z,23.20
2018-03-01T13:45:45.737Z,23.00
2018-03-01T13:48:19.008Z,23.60
2018-03-01T13:50:45.226Z,23.30
2018-03-01T13:53:19.946Z,23.20
2018-03-01T13:55:46.913Z,23.20
2018-03-01T13:58:14.007Z,23.60
2018-03-01T14:00:41.905Z,23.60
2018-03-01T14:03:09.661Z,23.50
2018-03-01T14:05:44.382Z,23.00
2018-03-01T14:08:12.604Z,23.80
2018-03-01T14:10:39.711Z,23.60
2018-03-01T14:13:19.788Z,23.60
2018-03-01T14:15:49.408Z,23.20
2018-03-01T14:18:31.572Z,23.10
2018-03-01T14:21:08.414Z,23.10
2018-03-01T17:47:39.225Z,30.00
2018-03-01T17:50:05.671Z,30.40
2018-03-01T17:52:31.892Z,30.10
2018-03-01T17:54:58.121Z,30.40
2018-03-01T17:57:24.370Z,30.10
2018-03-01T17:59:50.694Z,30.80
2018-03-01T18:02:16.909Z,30.90
2018-03-01T18:04:43.832Z,31.20
2018-03-01T18:07:09.999Z,31.20
2018-03-01T18:09:36.891Z,31.90
2018-03-01T18:14:38.273Z,31.80
2018-03-01T18:17:04.646Z,31.90
2018-03-01T18:19:31.076Z,31.60
2018-03-01T18:21:58.255Z,31.20
2018-03-01T18:24:26.142Z,31.60
2018-03-01T18:26:52.665Z,31.90
2018-03-01T18:29:19.024Z,31.40
2018-03-01T18:31:45.599Z,31.60
2018-03-01T18:34:12.285Z,31.40
2018-03-01T18:36:38.876Z,32.30
2018-03-01T18:39:05.284Z,31.80
2018-03-01T18:41:31.638Z,31.80
2018-03-01T18:43:58.022Z,32.40
2018-03-01T18:46:24.755Z,32.00
2018-03-01T18:48:50.933Z,32.30
2018-03-01T18:51:17.276Z,32.10
2018-03-01T18:53:43.705Z,32.40
2018-03-01T18:56:10.019Z,32.60
2018-03-01T18:58:36.494Z,32.70
2018-03-01T19:01:02.800Z,32.90
2018-03-01T19:03:29.011Z,32.70
2018-03-01T19:05:56.236Z,32.60
2018-03-01T19:08:22.457Z,32.60
2018-03-01T19:10:48.740Z,32.70
2018-03-01T19:13:15.115Z,33.30
2018-03-01T19:15:41.464Z,32.90
2018-03-01T19:18:08.021Z,32.70
2018-03-01T19:20:34.339Z,33.10
2018-03-01T19:23:01.262Z,33.70
2018-03-01T19:25:27.815Z,33.50
2018-03-01T19:27:54.795Z,33.10
2018-03-01T19:30:21.061Z,33.10
2018-03-01T19:32:47.247Z,33.70
2018-03-01T19:35:13.439Z,33.30
2018-03-01T19:37:40.373Z,33.60
2018-03-01T19:40:06.552Z,33.50
2018-03-01T19:42:32.726Z,33.70
2018-03-01T19:44:58.891Z,33.70
2018-03-01T19:47:25.054Z,33.70
2018-03-01T19:49:51.398Z,33.90
2018-03-01T19:52:17.607Z,34.50
2018-03-01T19:54:43.824Z,33.80
2018-03-01T19:57:10.015Z,33.90
2018-03-01T19:59:36.180Z,33.50
2018-03-01T20:02:02.350Z,33.60
2018-03-01T20:04:28.496Z,34.10
2018-03-01T20:06:54.805Z,33.50
2018-03-01T20:09:20.956Z,33.60
2018-03-01T20:11:47.376Z,34.00
2018-03-01T20:14:13.797Z,33.80
2018-03-01T20:16:40.703Z,33.80
2018-03-01T20:19:08.430Z,33.60
2018-03-01T20:21:35.621Z,33.60
2018-03-01T20:24:02.023Z,34.50
2018-03-01T20:26:28.276Z,34.20
2018-03-01T20:28:56.542Z,34.00
2018-03-01T20:31:22.742Z,33.70
2018-03-01T20:33:49.550Z,33.70
2018-03-01T20:36:15.813Z,34.10
2018-03-01T20:38:42.831Z,34.20
2018-03-01T20:41:09.103Z,34.20
2018-03-01T20:46:08.132Z,34.10
2018-03-01T20:48:36.294Z,34.00
2018-03-01T20:51:02.536Z,33.80
2018-03-01T20:53:30.902Z,33.80
2018-03-01T20:55:59.087Z,34.00
2018-03-01T20:58:29.833Z,33.80
2018-03-01T21:00:56.018Z,33.80
2018-03-01T21:03:22.200Z,33.50
2018-03-01T21:05:48.473Z,34.00
2018-03-01T21:08:14.628Z,33.80
2018-03-01T21:10:40.814Z,33.60
2018-03-01T21:13:07.746Z,34.00
2018-03-01T21:15:33.983Z,34.00
2018-03-01T21:18:00.159Z,33.90
2018-03-01T21:20:27.086Z,34.00
2018-03-01T21:22:53.929Z,34.00
2018-03-01T21:25:23.072Z,34.00
2018-03-01T21:27:49.616Z,34.20
2018-03-01T21:30:16.508Z,34.20
2018-03-01T21:32:42.737Z,34.10
2018-03-01T21:35:13.146Z,34.40
2018-03-01T21:37:39.665Z,34.30
2018-03-01T21:40:05.885Z,34.30
2018-03-01T21:42:32.164Z,34.20
2018-03-01T21:44:58.389Z,34.20
2018-03-01T21:47:24.948Z,34.30
2018-03-01T21:49:51.238Z,34.40
2018-03-01T21:52:17.472Z,34.50
2018-03-01T21:54:46.050Z,34.80
2018-03-01T21:57:13.627Z,34.80
2018-03-01T21:59:39.947Z,34.50
2018-03-01T22:02:07.022Z,34.80
2018-03-01T22:04:33.459Z,35.40
2018-03-01T22:06:59.634Z,35.00
2018-03-01T22:09:26.608Z,34.80
2018-03-01T22:11:52.833Z,34.80
2018-03-01T22:14:19.807Z,35.00
2018-03-01T22:16:46.818Z,35.00
2018-03-01T22:21:56.667Z,35.30
2018-03-01T22:24:24.188Z,35.10
2018-03-01T22:26:50.456Z,35.20
2018-03-01T22:29:17.526Z,35.20
2018-03-01T22:31:46.012Z,35.10
2018-03-01T22:34:13.105Z,35.30
2018-03-01T22:39:16.886Z,35.40
2018-03-01T22:41:50.914Z,35.60
2018-03-01T22:44:18.400Z,35.40
2018-03-01T22:46:58.516Z,35.40
2018-03-01T22:49:24.779Z,35.40
2018-03-01T22:51:53.017Z,35.80
2018-03-01T22:54:19.544Z,35.60
2018-03-01T22:56:45.984Z,35.70
2018-03-01T22:59:12.227Z,35.40
2018-03-01T23:01:39.368Z,36.10
2018-03-01T23:04:05.612Z,35.80
2018-03-01T23:06:31.747Z,35.90
2018-03-01T23:09:01.851Z,35.90
2018-03-01T23:11:28.993Z,35.90
2018-03-01T23:13:55.382Z,35.80
2018-03-01T23:16:21.527Z,35.90
2018-03-01T23:18:47.714Z,36.10
2018-03-01T23:21:13.879Z,35.90
2018-03-01T23:23:40.100Z,36.00
2018-03-01T23:26:06.251Z,36.20
2018-03-01T23:28:32.456Z,36.20
2018-03-01T23:30:59.413Z,36.30
2018-03-01T23:33:26.335Z,36.40
2018-03-01T23:35:52.520Z,36.40
2018-03-01T23:38:19.399Z,36.70
2018-03-01T23:40:45.593Z,36.70
2018-03-01T23:43:12.278Z,36.90
2018-03-01T23:45:38.581Z,36.60
2018-03-01T23:48:04.856Z,36.90
2018-03-01T23:50:31.742Z,36.90
2018-03-01T23:52:57.916Z,36.80
2018-03-01T23:55:24.092Z,37.00
2018-03-01T23:57:50.263Z,36.90
